Clayton, Georgia
Current Conditions -  °F | °C
As of 10:35 PM on Monday 20 Oct 2014 (Local Time) from KTOC Reporting Station
Clear Clear  
Wind Chill: 56°   Ceiling: Unl
Heat Index: 56°   Visibility: 10mi
Dew Point: 52°   Wind: 3mph
Humidity: 88%   Direction: 230°SW
Pressure: 30.01"   Gusts: NA
Location:  34.88°N, 83.4°W
Report Text: KTOC 210235Z AUTO 23003KT 10SM CLR 13/11 A3001 RMK AO2 T01320113
Loading
Personal Weather Stations






























Interactive Weather Map New forecast layout! Learn more

10-Day Weather Forecast

Advertisements
Track Severe Weather on mobile